Orjan Kihlstrom

Orjan Kihlstrom

Statistiques 2026

  • Courses courues : 257
  • Nb de victoires : 41
  • Nb de places : 111
  • Écart gagnant : -
  • Réussite à la gagne : 16%
  • Réussite à la place : 43%
Musique : 1a 5a 3a 5a 5a 1a 7a 2a 3a 2a 3a 8a 6a 4a 5a 4a 0a Da

Orjan Kihlstrom en quelques mots

Orjan Kihlstrom est né le 13 mai 1962 en Suède.

Il possède à son palmarès les deux courses de trot les plus importantes au monde : l'Elitloppet qu'il a remporté en 2003 avec From Above et le Grand Prix d'Amérique dans lequel il s'est imposé en 2014 avec Maharajah. A Vincennes, il a aussi remporté le Prix de France avec Naglo en 2004 et 2005 et le Prix de Paris avec Maharajah en 2011.

DateRangCatégorieAlloc.Dist.HippodromeChevalRed. KmSpé.
18/01/25 0 Trot 24 238€ 1 640m Swe-Jagersro Mister Kabuki Attelé
18/01/25 3 Trot 24 238€ 2 160m Swe-Jagersro Hidethewinehoney Attelé
18/01/25 0 Trot 24 238€ 2 140m Swe-Jagersro Moufaza S.F. 1'14"8 Attelé
18/01/25 0 Trot 28 634€ 2 640m Swe-Jagersro Let Me In 1'15"0 Attelé
12/04/25 0 Trot 20 461€ 3 180m Swe-Jagersro Bortas Ankare Attelé
12/04/25 4 Trot 29 720€ 2 140m Swe-Jagersro Jaguar Dream 1'11"1 Attelé
12/04/25 2 Trot 29 720€ 2 160m Swe-Jagersro Cathrinelle 1'13"3 Attelé
12/04/25 0 Trot 25 158€ 1 640m Swe-Jagersro Cross Lane Attelé
12/04/25 D Trot 25 158€ 2 640m Swe-Jagersro Henessi Joy Attelé
29/07/25 5 Trot 88 968€ 1 640m Swe-Jagersro Gohan Kb Leone 1'11"6 Attelé
29/07/25 1 Trot 29 270€ 1 640m Swe-Jagersro Olly Haleryd 1'10"6 Attelé
29/07/25 2 Trot 38 390€ 1 640m Swe-Jagersro Keep Asking 1'10"7 Attelé
29/07/25 6 Trot 29 270€ 2 140m Swe-Jagersro Flotilla 1'12"4 Attelé
29/07/25 0 Trot 88 968€ 1 640m Swe-Jagersro Mimosa To Martini 1'12"7 Attelé
29/07/25 0 Trot 24 778€ 2 140m Swe-Jagersro Jubii Vang 1'13"0 Attelé
29/07/25 1 Trot 276 601€ 1 609m Swe-Jagersro Don Fanucci Zet 1'9"5 Attelé
29/07/25 1 Trot 69 751€ 3 160m Swe-Jagersro Hankypanky Pinkman 1'13"6 Attelé
26/08/25 0 Trot 19 410€ 2 140m Swe-Jagersro Hidethewinehoney 1'14"0 Attelé
26/08/25 2 Trot 19 410€ 2 140m Swe-Jagersro Love Bites 1'12"2 Attelé
26/08/25 5 Trot 19 410€ 2 140m Swe-Jagersro Mellby Maleficent 1'13"6 Attelé
26/08/25 2 Trot 37 343€ 2 640m Swe-Jagersro Izod Zet 1'13"0 Attelé
26/08/25 0 Trot 37 343€ 2 640m Swe-Jagersro Elvis T.C.B. 1'13"8 Attelé
26/08/25 D Trot 19 410€ 2 140m Swe-Jagersro Okaleia Boko Attelé
26/08/25 1 Trot 37 343€ 2 640m Swe-Jagersro La Yuca 1'12"7 Attelé
26/08/25 4 Trot 37 343€ 2 640m Swe-Jagersro Force Of Nature 1'13"2 Attelé
26/08/25 2 Trot 37 343€ 2 640m Swe-Jagersro Romulus Tooma 1'12"6 Attelé
07/09/25 2 Trot 20 479€ 2 140m Swe-Jagersro Chestnut 1'11"6 Attelé
07/09/25 1 Trot 45 208€ 2 140m Swe-Jagersro Okaleia Boko 1'12"4 Attelé
07/09/25 0 Trot 180 832€ 2 140m Swe-Jagersro Love Bites 1'12"9 Attelé
07/09/25 5 Trot 20 479€ 3 160m Swe-Jagersro Ebullient 1'14"9 Attelé
07/09/25 5 Trot 361 664€ 2 640m Swe-Jagersro La Yuca 1'12"4 Attelé
07/09/25 4 Trot 45 208€ 2 140m Swe-Jagersro Mister Lion 1'11"9 Attelé
06/09/25 2 Trot 29 747€ 2 140m Swe-Jagersro Flotilla 1'10"8 Attelé
31/03/12 D Trot 20 920€ 2 140m Swe-Jagersro Iceland Attelé
21/08/12 4 Trot 20 920€ 2 640m Swe-Jagersro High Bypass 1'14"5 Attelé
09/02/13 3 Trot 10 460€ 2 160m Swe-Jagersro Lennart 1'14"6 Attelé
30/07/13 3 Trot 15 690€ 1 609m Swe-Jagersro Pantholops Attelé
30/07/13 5 Trot 7 322€ 1 609m Swe-Jagersro Parodie Attelé
30/07/13 3 Trot 31 380€ 1 609m Swe-Jagersro Rossella Ross 1'12"3 Attelé
30/07/13 1 Trot 31 380€ 1 609m Swe-Jagersro Magic Tonight 1'10"8 Attelé
30/07/13 1 Trot 104 602€ 1 609m Swe-Jagersro Commander Crowe 1'10"7 Attelé
30/07/13 3 Trot 36 610€ 3 180m Swe-Jagersro Save The Quick 1'13"6 Attelé
30/07/13 0 Trot 7 322€ 1 609m Swe-Jagersro Lina Liv Attelé
01/09/13 2 Trot 20 920€ 2 640m Swe-Jagersro Digital Motion 1'15"0 Attelé
01/09/13 0 Trot 10 460€ 1 640m Swe-Jagersro Latitude Broline 1'11"9 Attelé
01/09/13 0 Trot 10 460€ 1 640m Swe-Jagersro Occasion Kronos Attelé
01/09/13 0 Trot 104 602€ 2 140m Swe-Jagersro Kiss Me Kemp 1'14"5 Attelé
01/09/13 3 Trot 209 205€ 2 640m Swe-Jagersro Increased Workload 1'12"6 Attelé
01/09/13 1 Trot 10 460€ 2 140m Swe-Jagersro Quadrille 1'14"5 Attelé
01/09/13 0 Trot 5 230€ 1 640m Swe-Jagersro Like A Circle As 1'14"1 Attelé